createdAt,value
2022-12-24T00:01:22.563Z,6.39
2022-12-24T00:03:50.692Z,6.37
2022-12-24T00:06:21.698Z,6.26
2022-12-24T00:08:51.407Z,6.16
2022-12-24T00:11:19.407Z,6.14
2022-12-24T00:13:48.206Z,6.08
2022-12-24T00:16:16.407Z,6.05
2022-12-24T00:18:46.618Z,5.97
2022-12-24T00:21:16.103Z,5.93
2022-12-24T00:23:43.925Z,5.92
2022-12-24T00:26:13.282Z,5.92
2022-12-24T00:28:41.677Z,5.90
2022-12-24T00:31:17.960Z,5.88
2022-12-24T00:33:46.979Z,5.86
2022-12-24T00:36:15.176Z,5.85
2022-12-24T00:38:43.202Z,5.91
2022-12-24T00:41:24.949Z,5.95
2022-12-24T00:43:58.727Z,5.99
2022-12-24T00:46:28.591Z,6.01
2022-12-24T00:48:57.087Z,6.00
2022-12-24T00:51:25.771Z,6.02
2022-12-24T00:53:53.550Z,6.01
2022-12-24T00:56:22.104Z,5.97
2022-12-24T00:58:49.859Z,5.97
2022-12-24T01:01:18.483Z,5.96
2022-12-24T01:03:46.581Z,5.92
2022-12-24T01:06:16.767Z,5.94
2022-12-24T01:08:44.841Z,5.96
2022-12-24T01:11:13.646Z,5.97
2022-12-24T01:13:41.335Z,5.94
2022-12-24T01:16:19.221Z,5.90
2022-12-24T01:18:47.171Z,5.90
2022-12-24T01:21:15.655Z,5.90
2022-12-24T01:23:43.706Z,5.92
2022-12-24T01:26:14.211Z,5.93
2022-12-24T01:28:42.605Z,5.87
2022-12-24T01:31:19.993Z,5.85
2022-12-24T01:33:49.121Z,5.82
2022-12-24T01:36:16.998Z,5.78
2022-12-24T01:38:44.657Z,5.76
2022-12-24T01:41:36.548Z,5.72
2022-12-24T01:44:43.889Z,5.67
2022-12-24T01:47:15.910Z,5.67
2022-12-24T01:49:50.968Z,5.71
2022-12-24T01:52:23.107Z,5.75
2022-12-24T01:54:55.486Z,5.77
2022-12-24T01:57:27.782Z,5.80
2022-12-24T02:00:00.558Z,5.78
2022-12-24T02:02:28.849Z,5.77
2022-12-24T02:05:06.827Z,5.75
2022-12-24T02:07:35.060Z,5.76
2022-12-24T02:10:04.025Z,5.80
2022-12-24T02:12:35.066Z,5.78
2022-12-24T02:15:04.940Z,5.75
2022-12-24T02:18:02.442Z,5.79
2022-12-24T02:20:48.782Z,5.80
2022-12-24T02:23:28.269Z,5.82
2022-12-24T02:26:23.031Z,5.80
2022-12-24T02:29:28.200Z,5.76
2022-12-24T02:32:01.742Z,5.71
2022-12-24T02:34:36.419Z,5.68
2022-12-24T02:37:15.090Z,5.69
2022-12-24T02:39:53.518Z,5.74
2022-12-24T02:42:27.407Z,5.75
2022-12-24T02:45:09.448Z,5.76
2022-12-24T02:47:38.865Z,5.81
2022-12-24T02:50:08.732Z,5.80
2022-12-24T02:52:44.906Z,5.79
2022-12-24T02:55:21.709Z,5.74
2022-12-24T02:58:29.277Z,5.74
2022-12-24T03:01:17.802Z,5.71
2022-12-24T03:04:04.275Z,5.73
2022-12-24T03:06:47.517Z,5.74
2022-12-24T03:09:27.322Z,5.76
2022-12-24T03:12:06.575Z,5.75
2022-12-24T03:14:36.027Z,5.73
2022-12-24T03:17:04.234Z,5.73
2022-12-24T03:19:33.080Z,5.67
2022-12-24T03:22:04.498Z,5.60
2022-12-24T03:24:32.178Z,5.59
2022-12-24T03:27:00.637Z,5.53
2022-12-24T03:29:28.404Z,5.51
2022-12-24T03:32:01.587Z,5.49
2022-12-24T03:34:29.697Z,5.48
2022-12-24T03:36:57.612Z,5.46
2022-12-24T03:39:25.301Z,5.46
2022-12-24T03:41:52.899Z,5.43
2022-12-24T03:44:20.567Z,5.43
2022-12-24T03:46:48.199Z,5.44
2022-12-24T03:49:15.923Z,5.44
2022-12-24T03:51:43.575Z,5.41
2022-12-24T03:54:11.227Z,5.38
2022-12-24T03:56:38.826Z,5.35
2022-12-24T03:59:06.497Z,5.33
2022-12-24T04:01:34.216Z,5.33
2022-12-24T04:04:02.060Z,5.32
2022-12-24T04:06:29.751Z,5.29
2022-12-24T04:08:59.314Z,5.29
2022-12-24T04:11:27.414Z,5.27
2022-12-24T04:13:55.187Z,5.27
2022-12-24T04:16:23.372Z,5.24
2022-12-24T04:18:51.151Z,5.22
2022-12-24T04:21:18.785Z,5.21
2022-12-24T04:23:47.898Z,5.22
2022-12-24T04:26:15.570Z,5.24
2022-12-24T04:28:43.387Z,5.27
2022-12-24T04:31:16.638Z,5.30
2022-12-24T04:33:45.193Z,5.30
2022-12-24T04:36:17.128Z,5.34
2022-12-24T04:38:46.619Z,5.33
2022-12-24T04:41:23.143Z,5.38
2022-12-24T04:43:55.374Z,5.43
2022-12-24T04:46:26.630Z,5.42
2022-12-24T04:48:54.632Z,5.42
2022-12-24T04:51:22.828Z,5.45
2022-12-24T04:53:51.231Z,5.44
2022-12-24T04:56:27.519Z,5.48
2022-12-24T04:58:55.610Z,5.55
2022-12-24T05:01:30.016Z,5.61
2022-12-24T05:03:58.224Z,5.62
2022-12-24T05:06:29.740Z,5.61
2022-12-24T05:08:58.605Z,5.62
2022-12-24T05:11:27.437Z,5.57
2022-12-24T05:13:55.339Z,5.58
2022-12-24T05:16:24.262Z,5.62
2022-12-24T05:18:53.000Z,5.66
2022-12-24T05:21:22.473Z,5.69
2022-12-24T05:24:09.496Z,5.67
2022-12-24T05:26:44.630Z,5.59
2022-12-24T05:29:12.970Z,5.55
2022-12-24T05:31:41.955Z,5.52
2022-12-24T05:34:10.473Z,5.54
2022-12-24T05:36:38.361Z,5.58
2022-12-24T05:39:11.534Z,5.60
2022-12-24T05:41:43.932Z,5.63
2022-12-24T05:44:11.651Z,5.63
2022-12-24T05:46:39.550Z,5.59
2022-12-24T05:49:07.695Z,5.58
2022-12-24T05:51:35.751Z,5.56
2022-12-24T05:54:04.426Z,5.53
2022-12-24T05:56:32.753Z,5.51
2022-12-24T05:59:00.424Z,5.48
2022-12-24T06:01:28.293Z,5.46
2022-12-24T06:03:57.285Z,5.45
2022-12-24T06:06:27.109Z,5.44
2022-12-24T06:08:57.054Z,5.40
2022-12-24T06:11:27.052Z,5.39
2022-12-24T06:13:55.443Z,5.38
2022-12-24T06:16:25.096Z,5.42
2022-12-24T06:18:52.891Z,5.41
2022-12-24T06:21:20.968Z,5.43
2022-12-24T06:23:48.650Z,5.44
2022-12-24T06:26:19.940Z,5.45
2022-12-24T06:28:49.281Z,5.45
2022-12-24T06:31:19.326Z,5.48
2022-12-24T06:33:47.358Z,5.47
2022-12-24T06:36:18.379Z,5.54
2022-12-24T06:38:47.880Z,5.58
2022-12-24T06:41:16.375Z,5.59
2022-12-24T06:43:46.002Z,5.57
2022-12-24T06:46:14.144Z,5.53
2022-12-24T06:48:44.228Z,5.51
2022-12-24T06:51:13.992Z,5.50
2022-12-24T06:53:41.810Z,5.51
2022-12-24T06:56:12.707Z,5.53
2022-12-24T06:58:41.233Z,5.58
2022-12-24T07:01:12.428Z,5.58
2022-12-24T07:06:29.821Z,5.59
2022-12-24T07:08:57.511Z,5.52
2022-12-24T07:11:26.093Z,5.52
2022-12-24T07:13:53.795Z,5.50
2022-12-24T07:16:21.793Z,5.48
2022-12-24T07:18:49.552Z,5.46
2022-12-24T07:21:17.262Z,5.44
2022-12-24T07:23:44.851Z,5.43
2022-12-24T07:26:12.505Z,5.42
2022-12-24T07:28:40.260Z,5.40
2022-12-24T07:31:08.053Z,5.42
2022-12-24T07:33:35.785Z,5.46
2022-12-24T07:36:06.290Z,5.48
2022-12-24T07:38:35.526Z,5.50
2022-12-24T07:41:03.258Z,5.50
2022-12-24T07:43:32.994Z,5.52
2022-12-24T07:46:00.775Z,5.53
2022-12-24T07:48:30.599Z,5.55
2022-12-24T07:50:58.714Z,5.56
2022-12-24T07:53:28.020Z,5.55
2022-12-24T07:55:56.147Z,5.56
2022-12-24T08:03:42.499Z,5.60
2022-12-24T08:06:11.491Z,5.55
2022-12-24T08:08:39.211Z,5.53
2022-12-24T08:11:07.793Z,5.51
2022-12-24T08:13:35.922Z,5.47
2022-12-24T08:16:04.539Z,5.48
2022-12-24T08:18:33.058Z,5.47
2022-12-24T08:21:00.665Z,5.44
2022-12-24T08:23:28.342Z,5.44
2022-12-24T08:25:56.076Z,5.46
2022-12-24T08:28:23.672Z,5.45
2022-12-24T08:30:51.330Z,5.44
2022-12-24T08:33:22.179Z,5.42
2022-12-24T08:35:51.295Z,5.44
2022-12-24T08:38:19.391Z,5.44
2022-12-24T08:40:50.158Z,5.47
2022-12-24T08:43:18.871Z,5.45
2022-12-24T08:45:49.185Z,5.46
2022-12-24T08:48:17.465Z,5.45
2022-12-24T08:50:45.624Z,5.51
2022-12-24T08:53:13.373Z,5.53
2022-12-24T08:55:41.019Z,5.57
2022-12-24T08:58:08.721Z,5.60
2022-12-24T09:00:38.155Z,5.63
2022-12-24T09:06:22.895Z,5.66
2022-12-24T09:08:49.125Z,5.61
2022-12-24T09:11:17.777Z,5.63
2022-12-24T09:13:44.387Z,5.68
2022-12-24T09:16:11.463Z,5.70
2022-12-24T09:18:39.265Z,5.71
2022-12-24T09:21:09.220Z,5.72
2022-12-24T09:23:39.001Z,5.68
2022-12-24T09:26:06.563Z,5.69
2022-12-24T09:28:32.828Z,5.65
2022-12-24T09:31:01.237Z,5.63
2022-12-24T09:33:29.634Z,5.66
2022-12-24T09:35:56.380Z,5.69
2022-12-24T09:38:23.581Z,5.72
2022-12-24T09:40:51.285Z,5.73
2022-12-24T09:43:26.440Z,5.72
2022-12-24T09:46:04.912Z,5.65
2022-12-24T09:48:34.362Z,5.63
2022-12-24T09:51:08.829Z,5.64
2022-12-24T09:53:52.637Z,5.64
2022-12-24T09:56:23.676Z,5.67
2022-12-24T09:59:05.258Z,5.68
2022-12-24T10:01:34.030Z,5.69
2022-12-24T10:04:14.657Z,5.67
2022-12-24T10:06:57.392Z,5.67
2022-12-24T10:09:38.079Z,5.67
2022-12-24T10:12:35.194Z,5.73
2022-12-24T10:15:19.810Z,5.78
2022-12-24T10:18:02.067Z,5.83
2022-12-24T10:20:43.783Z,5.82
2022-12-24T10:23:20.539Z,5.82
2022-12-24T10:26:14.936Z,5.80
2022-12-24T10:28:52.784Z,5.82
2022-12-24T10:31:24.928Z,5.80
2022-12-24T10:33:59.072Z,5.80
2022-12-24T10:36:29.015Z,5.79
2022-12-24T10:38:56.083Z,5.80
2022-12-24T10:41:25.681Z,5.82
2022-12-24T10:43:52.740Z,5.83
2022-12-24T10:46:23.103Z,5.85
2022-12-24T10:48:58.240Z,5.90
2022-12-24T10:51:49.210Z,5.93
2022-12-24T10:54:27.263Z,5.94
2022-12-24T10:57:01.792Z,5.94
2022-12-24T10:59:51.702Z,5.94
2022-12-24T11:02:36.531Z,5.96
2022-12-24T11:05:07.093Z,5.95
2022-12-24T11:07:33.744Z,5.96
2022-12-24T11:10:06.303Z,5.94
2022-12-24T11:12:55.689Z,5.94
2022-12-24T11:15:36.221Z,5.95
2022-12-24T11:18:05.754Z,5.94
2022-12-24T11:20:34.339Z,5.92
2022-12-24T11:23:01.847Z,5.87
2022-12-24T11:25:34.061Z,5.86
2022-12-24T11:28:18.675Z,5.85
2022-12-24T11:30:59.481Z,5.82
2022-12-24T11:33:26.629Z,5.78
2022-12-24T11:36:01.730Z,5.80
2022-12-24T11:38:31.196Z,5.82
2022-12-24T11:40:59.189Z,5.80
2022-12-24T11:43:43.534Z,5.73
2022-12-24T11:46:18.826Z,5.71
2022-12-24T11:48:46.351Z,5.71
2022-12-24T11:51:39.931Z,5.70
2022-12-24T11:54:29.193Z,5.69
2022-12-24T11:56:58.089Z,5.70
2022-12-24T11:59:31.841Z,5.71
2022-12-24T12:05:23.871Z,5.82
2022-12-24T12:07:58.090Z,5.86
2022-12-24T12:10:31.631Z,5.86
2022-12-24T12:13:16.465Z,5.87
2022-12-24T12:16:00.996Z,5.88
2022-12-24T12:18:36.072Z,5.89
2022-12-24T12:21:14.750Z,5.87
2022-12-24T12:23:49.923Z,5.89
2022-12-24T12:26:30.161Z,5.90
2022-12-24T12:29:20.501Z,5.90
2022-12-24T12:31:52.738Z,5.87
2022-12-24T12:34:29.509Z,5.85
2022-12-24T12:37:08.414Z,5.87
2022-12-24T12:39:40.779Z,5.92
2022-12-24T12:42:28.075Z,5.97
2022-12-24T12:45:20.591Z,5.98
2022-12-24T12:48:24.325Z,5.97
2022-12-24T12:51:02.678Z,5.96
2022-12-24T12:54:08.841Z,5.97
2022-12-24T12:56:38.311Z,5.97
2022-12-24T12:59:35.903Z,6.01
2022-12-24T13:02:17.328Z,6.05
2022-12-24T13:04:59.483Z,6.10
2022-12-24T13:07:51.729Z,6.15
2022-12-24T13:10:41.199Z,6.16
2022-12-24T13:13:20.599Z,6.08
2022-12-24T13:16:02.666Z,6.05
2022-12-24T13:18:55.375Z,6.03
2022-12-24T13:21:26.409Z,6.03
2022-12-24T13:24:19.025Z,6.08
2022-12-24T13:27:03.059Z,6.12
2022-12-24T13:29:31.484Z,6.14
2022-12-24T13:32:21.059Z,6.16
2022-12-24T13:34:52.952Z,6.09
2022-12-24T13:37:35.343Z,6.08
2022-12-24T13:40:06.157Z,6.09
2022-12-24T13:42:59.168Z,6.10
2022-12-24T13:45:29.930Z,6.12
2022-12-24T13:48:01.476Z,6.17
2022-12-24T13:50:44.608Z,6.16
2022-12-24T13:53:22.351Z,6.10
2022-12-24T13:55:56.385Z,6.06
2022-12-24T13:58:25.765Z,5.99
2022-12-24T14:00:57.556Z,5.93
2022-12-24T14:06:52.354Z,6.02
2022-12-24T14:09:25.164Z,6.00
2022-12-24T14:11:58.708Z,5.98
2022-12-24T14:14:37.185Z,5.94
2022-12-24T14:17:22.810Z,5.87
2022-12-24T14:20:02.374Z,5.83
2022-12-24T14:22:34.397Z,5.81
2022-12-24T14:25:18.553Z,5.81
2022-12-24T14:27:52.375Z,5.81
2022-12-24T14:30:31.304Z,5.80
2022-12-24T14:32:59.012Z,5.82
2022-12-24T14:35:31.107Z,5.80
2022-12-24T14:38:05.521Z,5.75
2022-12-24T14:40:50.798Z,5.72
2022-12-24T14:43:42.936Z,5.69
2022-12-24T14:46:26.561Z,5.76
2022-12-24T14:49:12.187Z,5.78
2022-12-24T14:52:38.058Z,5.77
2022-12-24T14:55:01.345Z,5.79
2022-12-24T14:57:29.192Z,5.78
2022-12-24T15:00:02.276Z,5.76
2022-12-24T15:05:44.747Z,5.85
2022-12-24T15:08:18.340Z,5.85
2022-12-24T15:10:54.934Z,5.85
2022-12-24T15:13:26.364Z,5.87
2022-12-24T15:15:55.638Z,5.89
2022-12-24T15:18:28.669Z,5.88
2022-12-24T15:21:04.040Z,5.85
2022-12-24T15:23:34.187Z,5.85
2022-12-24T15:26:09.511Z,5.86
2022-12-24T15:28:39.284Z,5.95
2022-12-24T15:31:28.327Z,5.97
2022-12-24T15:33:59.228Z,5.95
2022-12-24T15:36:37.149Z,5.90
2022-12-24T15:39:08.411Z,5.87
2022-12-24T15:42:02.178Z,5.87
2022-12-24T15:44:34.134Z,5.91
2022-12-24T15:47:04.603Z,5.95
2022-12-24T15:49:34.165Z,5.95
2022-12-24T15:52:10.719Z,5.94
2022-12-24T15:54:52.148Z,5.93
2022-12-24T15:57:33.476Z,5.87
2022-12-24T16:00:02.495Z,5.81
2022-12-24T16:05:38.592Z,5.73
2022-12-24T16:08:15.006Z,5.73
2022-12-24T16:10:45.349Z,5.75
2022-12-24T16:13:23.805Z,5.76
2022-12-24T16:15:59.513Z,5.72
2022-12-24T16:18:35.962Z,5.69
2022-12-24T16:21:05.363Z,5.65
2022-12-24T16:23:39.204Z,5.61
2022-12-24T16:26:06.901Z,5.62
2022-12-24T16:28:34.658Z,5.60
2022-12-24T16:31:02.703Z,5.56
2022-12-24T16:33:30.508Z,5.49
2022-12-24T16:35:58.350Z,5.49
2022-12-24T16:38:26.123Z,5.48
2022-12-24T16:40:53.821Z,5.41
2022-12-24T16:43:40.443Z,5.37
2022-12-24T16:46:08.412Z,5.30
2022-12-24T16:48:37.789Z,5.24
2022-12-24T16:51:05.876Z,5.22
2022-12-24T16:53:33.725Z,5.24
2022-12-24T16:56:02.700Z,5.29
2022-12-24T16:58:30.587Z,5.27
2022-12-24T17:00:59.714Z,5.20
2022-12-24T17:03:27.482Z,5.22
2022-12-24T17:05:55.202Z,5.22
2022-12-24T17:08:22.889Z,5.18
2022-12-24T17:10:51.669Z,5.16
2022-12-24T17:13:19.465Z,5.15
2022-12-24T17:15:47.221Z,5.15
2022-12-24T17:18:15.109Z,5.16
2022-12-24T17:20:42.714Z,5.13
2022-12-24T17:23:10.771Z,5.14
2022-12-24T17:25:38.572Z,5.13
2022-12-24T17:28:06.354Z,5.09
2022-12-24T17:30:33.994Z,5.01
2022-12-24T17:33:01.808Z,4.99
2022-12-24T17:35:29.509Z,5.04
2022-12-24T17:37:57.213Z,5.03
2022-12-24T17:40:24.927Z,5.07
2022-12-24T17:42:52.824Z,5.05
2022-12-24T17:45:20.501Z,5.04
2022-12-24T17:47:48.268Z,5.08
2022-12-24T17:50:16.122Z,5.11
2022-12-24T17:52:43.979Z,5.12
2022-12-24T17:55:11.742Z,5.14
2022-12-24T17:57:39.577Z,5.15
2022-12-24T18:00:08.117Z,5.10
2022-12-24T18:05:48.496Z,5.13
2022-12-24T18:08:16.222Z,5.08
2022-12-24T18:10:43.874Z,5.14
2022-12-24T18:13:17.367Z,5.16
2022-12-24T18:15:47.097Z,5.11
2022-12-24T18:18:14.821Z,5.07
2022-12-24T18:20:46.529Z,5.08
2022-12-24T18:23:14.713Z,5.13
2022-12-24T18:25:42.361Z,5.16
2022-12-24T18:28:10.503Z,5.15
2022-12-24T18:30:38.204Z,5.15
2022-12-24T18:33:06.156Z,5.14
2022-12-24T18:35:33.874Z,5.10
2022-12-24T18:38:01.550Z,5.05
2022-12-24T18:40:29.266Z,5.02
2022-12-24T18:42:57.062Z,5.01
2022-12-24T18:45:24.837Z,5.01
2022-12-24T18:47:52.570Z,5.01
2022-12-24T18:50:20.251Z,5.06
2022-12-24T18:52:50.492Z,5.10
2022-12-24T18:55:18.128Z,5.09
2022-12-24T18:57:45.740Z,5.02
2022-12-24T19:00:13.597Z,5.01
2022-12-24T19:02:41.427Z,5.03
2022-12-24T19:05:09.573Z,5.08
2022-12-24T19:07:37.315Z,5.07
2022-12-24T19:10:05.458Z,5.09
2022-12-24T19:12:33.148Z,5.06
2022-12-24T19:15:01.521Z,5.03
2022-12-24T19:17:29.255Z,5.02
2022-12-24T19:19:56.992Z,5.00
2022-12-24T19:22:27.849Z,4.96
2022-12-24T19:24:55.665Z,4.90
2022-12-24T19:27:23.406Z,4.89
2022-12-24T19:29:51.171Z,4.92
2022-12-24T19:32:18.902Z,4.95
2022-12-24T19:34:46.789Z,4.99
2022-12-24T19:37:14.538Z,5.04
2022-12-24T19:39:42.409Z,5.07
2022-12-24T19:42:10.268Z,5.11
2022-12-24T19:44:38.131Z,5.06
2022-12-24T19:47:05.897Z,5.02
2022-12-24T19:49:33.595Z,4.98
2022-12-24T19:52:01.320Z,4.95
2022-12-24T19:54:28.927Z,4.89
2022-12-24T19:56:56.582Z,4.84
2022-12-24T19:59:24.206Z,4.77
2022-12-24T20:01:54.326Z,4.69
2022-12-24T20:04:22.302Z,4.62
2022-12-24T20:06:54.698Z,4.54
2022-12-24T20:09:25.721Z,4.50
2022-12-24T20:11:53.554Z,4.48
2022-12-24T20:14:21.185Z,4.49
2022-12-24T20:16:50.012Z,4.48
2022-12-24T20:19:17.886Z,4.47
2022-12-24T20:21:45.639Z,4.47
2022-12-24T20:24:13.417Z,4.46
2022-12-24T20:26:41.241Z,4.46
2022-12-24T20:29:10.609Z,4.46
2022-12-24T20:31:39.145Z,4.46
2022-12-24T20:34:08.446Z,4.45
2022-12-24T20:36:37.519Z,4.46
2022-12-24T20:39:06.566Z,4.48
2022-12-24T20:41:34.357Z,4.48
2022-12-24T20:44:02.139Z,4.49
2022-12-24T20:46:31.119Z,4.51
2022-12-24T20:48:58.865Z,4.55
2022-12-24T20:51:28.440Z,4.56
2022-12-24T20:53:59.187Z,4.52
2022-12-24T20:56:28.006Z,4.54
2022-12-24T20:58:55.638Z,4.53
2022-12-24T21:01:26.022Z,4.55
2022-12-24T21:06:42.351Z,4.64
2022-12-24T21:09:10.707Z,4.66
2022-12-24T21:11:50.443Z,4.70
2022-12-24T21:14:22.254Z,4.71
2022-12-24T21:16:50.979Z,4.72
2022-12-24T21:19:21.884Z,4.75
2022-12-24T21:21:49.931Z,4.76
2022-12-24T21:24:17.969Z,4.76
2022-12-24T21:26:45.651Z,4.81
2022-12-24T21:29:14.648Z,4.85
2022-12-24T21:31:42.429Z,4.87
2022-12-24T21:34:10.091Z,4.84
2022-12-24T21:36:37.738Z,4.82
2022-12-24T21:39:05.428Z,4.79
2022-12-24T21:41:33.088Z,4.75
2022-12-24T21:44:02.137Z,4.68
2022-12-24T21:46:30.072Z,4.62
2022-12-24T21:49:16.540Z,4.59
2022-12-24T21:51:46.568Z,4.57
2022-12-24T21:54:25.391Z,4.56
2022-12-24T21:57:15.160Z,4.53
2022-12-24T21:59:42.908Z,4.53
2022-12-24T22:02:13.712Z,4.52
2022-12-24T22:04:42.452Z,4.53
2022-12-24T22:07:39.710Z,4.52
2022-12-24T22:10:26.925Z,4.51
2022-12-24T22:12:55.341Z,4.52
2022-12-24T22:25:48.171Z,4.57
2022-12-24T22:28:15.959Z,4.59
2022-12-24T22:30:43.656Z,4.60
2022-12-24T22:33:11.302Z,4.62
2022-12-24T22:35:40.350Z,4.62
2022-12-24T22:38:09.589Z,4.61
2022-12-24T22:40:40.193Z,4.57
2022-12-24T22:43:07.962Z,4.54
2022-12-24T22:45:35.738Z,4.52
2022-12-24T22:48:03.583Z,4.51
2022-12-24T22:50:31.479Z,4.50
2022-12-24T23:03:23.933Z,4.44
2022-12-24T23:05:56.817Z,4.42
2022-12-24T23:08:25.105Z,4.42
2022-12-24T23:10:54.615Z,4.42
2022-12-24T23:13:40.875Z,4.46
2022-12-24T23:16:08.821Z,4.47
2022-12-24T23:18:36.507Z,4.46
2022-12-24T23:21:06.144Z,4.44
2022-12-24T23:23:37.115Z,4.42
2022-12-24T23:26:11.845Z,4.45
2022-12-24T23:28:40.234Z,4.46
2022-12-24T23:31:08.476Z,4.39
2022-12-24T23:33:36.469Z,4.32
2022-12-24T23:36:04.921Z,4.30
2022-12-24T23:38:32.701Z,4.26
2022-12-24T23:41:03.172Z,4.22
2022-12-24T23:43:31.463Z,4.22
2022-12-24T23:45:59.772Z,4.15
2022-12-24T23:48:28.475Z,4.13
2022-12-24T23:51:08.642Z,4.11
2022-12-24T23:53:36.700Z,4.07
2022-12-24T23:56:05.125Z,4.05
2022-12-24T23:58:33.166Z,4.04
